createdAt,value
2018-05-10T00:01:23.806Z,4.60
2018-05-10T00:03:52.550Z,3.67
2018-05-10T00:06:20.003Z,3.73
2018-05-10T00:08:47.459Z,3.83
2018-05-10T00:11:14.921Z,3.43
2018-05-10T00:13:42.367Z,3.40
2018-05-10T00:16:09.813Z,3.03
2018-05-10T00:18:37.260Z,2.83
2018-05-10T00:21:04.717Z,3.10
2018-05-10T00:23:32.155Z,3.40
2018-05-10T00:26:00.378Z,3.30
2018-05-10T00:28:27.840Z,2.80
2018-05-10T00:30:55.280Z,3.30
2018-05-10T00:33:23.258Z,3.43
2018-05-10T00:35:50.712Z,3.43
2018-05-10T00:38:18.170Z,3.83
2018-05-10T00:40:45.633Z,4.07
2018-05-10T00:43:13.079Z,4.23
2018-05-10T00:45:40.546Z,3.67
2018-05-10T00:48:07.989Z,3.30
2018-05-10T00:50:35.538Z,3.20
2018-05-10T00:53:02.994Z,3.43
2018-05-10T00:55:30.667Z,4.40
2018-05-10T00:57:58.109Z,4.13
2018-05-10T01:00:25.651Z,5.13
2018-05-10T01:02:53.108Z,5.00
2018-05-10T01:05:20.563Z,4.87
2018-05-10T01:07:48.783Z,5.37
2018-05-10T01:10:16.237Z,4.83
2018-05-10T01:12:44.142Z,5.77
2018-05-10T01:15:12.378Z,4.90
2018-05-10T01:17:39.824Z,4.90
2018-05-10T01:20:07.278Z,5.20
2018-05-10T01:22:34.741Z,5.57
2018-05-10T01:25:02.987Z,6.40
2018-05-10T01:27:31.152Z,6.07
2018-05-10T01:29:59.372Z,6.30
2018-05-10T01:32:26.803Z,5.43
2018-05-10T01:35:06.275Z,5.80
2018-05-10T01:37:33.722Z,6.43
2018-05-10T01:40:01.187Z,5.57
2018-05-10T01:42:28.722Z,5.87
2018-05-10T01:44:56.169Z,5.00
2018-05-10T01:47:23.613Z,5.10
2018-05-10T01:49:52.759Z,5.60
2018-05-10T01:52:20.206Z,4.93
2018-05-10T01:54:47.666Z,4.53
2018-05-10T01:57:15.120Z,4.50
2018-05-10T01:59:42.567Z,5.10
2018-05-10T02:02:10.025Z,4.93
2018-05-10T02:04:37.486Z,5.20
2018-05-10T02:07:04.930Z,5.43
2018-05-10T02:09:32.376Z,5.87
2018-05-10T02:11:59.834Z,6.20
2018-05-10T02:14:27.282Z,5.60
2018-05-10T02:16:54.728Z,5.07
2018-05-10T02:19:22.951Z,4.83
2018-05-10T02:21:50.390Z,4.97
2018-05-10T02:24:17.845Z,5.87
2018-05-10T02:26:45.287Z,5.57
2018-05-10T02:29:12.811Z,5.00
2018-05-10T02:31:40.248Z,5.37
2018-05-10T02:34:07.711Z,4.97
2018-05-10T02:36:35.990Z,5.70
2018-05-10T02:39:03.432Z,6.40
2018-05-10T02:41:31.722Z,5.07
2018-05-10T02:43:59.171Z,6.03
2018-05-10T02:46:26.622Z,6.70
2018-05-10T02:48:54.081Z,6.33
2018-05-10T02:51:21.515Z,6.70
2018-05-10T02:53:49.297Z,6.40
2018-05-10T02:56:17.073Z,7.17
2018-05-10T02:58:44.510Z,7.53
2018-05-10T03:01:11.965Z,7.20
2018-05-10T03:03:39.441Z,6.73
2018-05-10T03:06:06.889Z,6.87
2018-05-10T03:08:34.338Z,6.77
2018-05-10T03:11:01.817Z,15.53
2018-05-10T03:13:29.266Z,23.80
2018-05-10T03:15:56.718Z,19.27
2018-05-10T03:18:24.826Z,10.10
2018-05-10T03:20:54.070Z,17.43
2018-05-10T03:23:21.530Z,15.67
2018-05-10T03:25:48.987Z,12.27
2018-05-10T03:28:16.449Z,9.37
2018-05-10T03:30:43.899Z,8.30
2018-05-10T03:33:11.410Z,31.80
2018-05-10T03:35:38.818Z,30.23
2018-05-10T03:38:06.268Z,18.33
2018-05-10T03:40:33.816Z,17.63
2018-05-10T03:43:01.201Z,13.00
2018-05-10T03:45:28.671Z,10.77
2018-05-10T03:47:56.133Z,10.93
2018-05-10T03:50:23.606Z,8.93
2018-05-10T03:52:52.929Z,8.30
2018-05-10T03:55:21.158Z,8.60
2018-05-10T03:57:48.624Z,8.80
2018-05-10T04:00:16.065Z,9.50
2018-05-10T04:16:19.070Z,11.03
2018-05-10T04:18:46.529Z,11.30
2018-05-10T04:21:13.989Z,13.13
2018-05-10T04:23:42.213Z,15.13
2018-05-10T04:26:09.678Z,20.07
2018-05-10T04:28:37.143Z,24.87
2018-05-10T04:31:04.610Z,25.97
2018-05-10T04:33:32.073Z,27.87
2018-05-10T04:35:59.678Z,30.70
2018-05-10T04:38:27.918Z,31.87
2018-05-10T04:40:55.394Z,30.23
2018-05-10T04:43:23.611Z,30.80
2018-05-10T04:45:51.708Z,36.37
2018-05-10T04:48:19.164Z,33.93
2018-05-10T04:50:46.621Z,33.60
2018-05-10T04:53:14.066Z,36.43
2018-05-10T04:55:41.527Z,34.90
2018-05-10T04:58:09.493Z,34.47
2018-05-10T05:00:36.942Z,34.87
2018-05-10T05:03:04.402Z,34.93
2018-05-10T05:05:31.860Z,36.60
2018-05-10T05:08:00.297Z,36.17
2018-05-10T05:10:27.760Z,34.90
2018-05-10T05:12:55.974Z,36.57
2018-05-10T05:15:23.436Z,35.17
2018-05-10T05:17:51.680Z,34.03
2018-05-10T05:20:19.122Z,32.30
2018-05-10T05:22:46.578Z,29.47
2018-05-10T05:25:14.022Z,30.53
2018-05-10T05:27:42.241Z,29.20
2018-05-10T05:30:09.704Z,28.97
2018-05-10T05:32:37.203Z,26.80
2018-05-10T05:35:04.630Z,28.47
2018-05-10T05:37:32.091Z,27.93
2018-05-10T05:39:59.564Z,26.37
2018-05-10T05:42:27.010Z,25.70
2018-05-10T05:44:54.474Z,24.33
2018-05-10T05:47:21.930Z,26.03
2018-05-10T05:49:49.386Z,27.83
2018-05-10T05:52:16.858Z,26.50
2018-05-10T05:54:44.310Z,29.47
2018-05-10T05:57:11.773Z,31.77
2018-05-10T05:59:39.222Z,31.33
2018-05-10T06:02:06.678Z,30.40
2018-05-10T06:04:34.125Z,31.43
2018-05-10T06:07:01.585Z,32.40
2018-05-10T06:09:29.051Z,33.60
2018-05-10T06:11:56.509Z,34.77
2018-05-10T06:14:23.986Z,35.27
2018-05-10T06:16:52.381Z,33.27
2018-05-10T06:19:19.817Z,34.47
2018-05-10T06:21:48.059Z,35.47
2018-05-10T06:24:15.502Z,35.00
2018-05-10T06:26:42.951Z,35.50
2018-05-10T06:29:10.412Z,34.97
2018-05-10T06:31:37.870Z,37.43
2018-05-10T06:34:05.378Z,36.77
2018-05-10T06:36:32.802Z,36.60
2018-05-10T06:39:00.266Z,34.47
2018-05-10T06:41:27.788Z,36.23
2018-05-10T06:43:55.212Z,35.57
2018-05-10T06:46:23.434Z,34.60
2018-05-10T06:48:50.893Z,35.20
2018-05-10T06:51:18.358Z,35.97
2018-05-10T06:53:45.832Z,37.80
2018-05-10T06:56:13.602Z,35.73
2018-05-10T06:58:41.051Z,36.10
2018-05-10T07:01:08.509Z,37.27
2018-05-10T07:03:35.964Z,33.77
2018-05-10T07:06:03.421Z,37.07
2018-05-10T07:08:30.887Z,40.70
2018-05-10T07:10:58.352Z,38.90
2018-05-10T07:13:25.803Z,36.63
2018-05-10T07:15:53.262Z,36.70
2018-05-10T07:18:20.855Z,34.97
2018-05-10T07:20:48.311Z,34.07
2018-05-10T07:23:15.784Z,31.97
2018-05-10T07:25:43.254Z,33.80
2018-05-10T07:28:11.370Z,30.50
2018-05-10T07:30:39.599Z,28.87
2018-05-10T07:33:07.061Z,28.77
2018-05-10T07:35:34.518Z,28.23
2018-05-10T07:38:01.993Z,27.07
2018-05-10T07:40:29.450Z,26.77
2018-05-10T07:42:56.906Z,28.07
2018-05-10T07:45:24.842Z,24.30
2018-05-10T07:47:52.315Z,26.50
2018-05-10T07:50:19.802Z,24.97
2018-05-10T07:52:47.263Z,24.00
2018-05-10T07:55:14.716Z,25.23
2018-05-10T07:57:42.202Z,23.80
2018-05-10T08:00:10.414Z,24.93
2018-05-10T08:02:37.898Z,24.70
2018-05-10T08:05:05.375Z,24.90
2018-05-10T08:07:32.825Z,24.90
2018-05-10T08:10:00.290Z,25.77
2018-05-10T08:12:27.743Z,25.47
2018-05-10T08:14:55.192Z,24.90
2018-05-10T08:17:22.646Z,25.17
2018-05-10T08:19:50.098Z,24.50
2018-05-10T08:22:17.561Z,22.43
2018-05-10T08:24:45.027Z,21.23
2018-05-10T08:27:12.471Z,19.67
2018-05-10T08:29:39.930Z,20.00
2018-05-10T08:32:07.383Z,18.53
2018-05-10T08:34:34.854Z,19.73
2018-05-10T08:37:02.302Z,20.23
2018-05-10T08:39:29.767Z,19.10
2018-05-10T08:41:57.222Z,18.10
2018-05-10T08:44:24.688Z,17.20
2018-05-10T08:46:52.178Z,15.87
2018-05-10T08:49:19.622Z,15.50
2018-05-10T08:51:47.957Z,14.23
2018-05-10T08:54:15.314Z,14.50
2018-05-10T08:56:42.779Z,13.73
2018-05-10T08:59:10.226Z,14.03
2018-05-10T09:01:37.682Z,13.30
2018-05-10T09:04:05.146Z,13.73
2018-05-10T09:06:32.613Z,15.17
2018-05-10T09:09:00.068Z,14.27
2018-05-10T09:11:27.517Z,13.90
2018-05-10T09:13:54.970Z,12.17
2018-05-10T09:16:22.415Z,13.03
2018-05-10T09:18:49.903Z,13.83
2018-05-10T09:21:17.359Z,12.70
2018-05-10T09:23:44.816Z,12.83
2018-05-10T09:26:13.102Z,14.27
2018-05-10T09:28:41.407Z,14.53
2018-05-10T09:31:08.860Z,14.10
2018-05-10T09:33:36.678Z,14.50
2018-05-10T09:36:04.132Z,14.20
2018-05-10T09:38:31.597Z,14.07
2018-05-10T09:40:59.046Z,13.53
2018-05-10T09:43:26.502Z,14.10
2018-05-10T09:45:54.480Z,14.20
2018-05-10T09:48:22.030Z,14.87
2018-05-10T09:50:49.781Z,14.30
2018-05-10T09:53:17.232Z,14.47
2018-05-10T09:55:44.687Z,14.57
2018-05-10T09:58:12.158Z,14.23
2018-05-10T10:00:39.626Z,13.97
2018-05-10T10:03:07.098Z,13.70
2018-05-10T10:05:35.191Z,13.97
2018-05-10T10:08:03.503Z,14.73
2018-05-10T10:10:30.961Z,13.70
2018-05-10T10:12:58.423Z,14.57
2018-05-10T10:15:26.334Z,14.37
2018-05-10T10:17:54.566Z,15.17
2018-05-10T10:20:22.014Z,14.60
2018-05-10T10:22:49.483Z,14.90
2018-05-10T10:25:16.966Z,14.43
2018-05-10T10:27:45.403Z,14.40
2018-05-10T10:30:12.855Z,14.67
2018-05-10T10:32:40.339Z,14.27
2018-05-10T10:35:08.717Z,13.63
2018-05-10T10:37:36.166Z,13.20
2018-05-10T10:40:03.694Z,13.77
2018-05-10T10:42:31.986Z,14.50
2018-05-10T10:44:59.438Z,13.90
2018-05-10T10:47:26.899Z,13.13
2018-05-10T10:49:54.952Z,12.83
2018-05-10T10:52:22.402Z,12.20
2018-05-10T10:54:49.855Z,12.70
2018-05-10T10:57:18.086Z,12.93
2018-05-10T10:59:45.547Z,13.90
2018-05-10T11:02:13.010Z,11.83
2018-05-10T11:04:40.524Z,12.93
2018-05-10T11:07:07.970Z,11.90
2018-05-10T11:09:35.422Z,10.60
2018-05-10T11:12:02.926Z,11.10
2018-05-10T11:14:30.372Z,11.90
2018-05-10T11:16:57.839Z,12.80
2018-05-10T11:19:25.830Z,11.87
2018-05-10T11:21:53.548Z,11.23
2018-05-10T11:24:21.007Z,12.37
2018-05-10T11:26:48.457Z,12.87
2018-05-10T11:29:15.906Z,11.73
2018-05-10T11:31:43.468Z,12.90
2018-05-10T11:34:10.930Z,13.97
2018-05-10T11:36:38.390Z,14.80
2018-05-10T11:39:05.915Z,14.37
2018-05-10T11:41:33.295Z,13.87
2018-05-10T11:44:00.747Z,14.10
2018-05-10T11:46:28.218Z,15.57
2018-05-10T11:48:55.679Z,15.70
2018-05-10T11:51:23.137Z,15.33
2018-05-10T11:53:50.594Z,14.47
2018-05-10T11:56:18.140Z,15.70
2018-05-10T11:58:45.835Z,15.57
2018-05-10T12:01:13.287Z,16.13
2018-05-10T12:03:40.742Z,16.00
2018-05-10T12:06:08.259Z,16.50
2018-05-10T12:08:35.673Z,17.13
2018-05-10T12:11:03.125Z,16.60
2018-05-10T12:13:30.583Z,15.47
2018-05-10T12:15:58.039Z,15.00
2018-05-10T12:18:25.500Z,15.50
2018-05-10T12:20:52.949Z,16.43
2018-05-10T12:23:20.405Z,15.70
2018-05-10T12:25:47.873Z,15.70
2018-05-10T12:28:15.634Z,14.80
2018-05-10T12:30:43.083Z,16.90
2018-05-10T12:33:10.538Z,18.23
2018-05-10T12:35:37.998Z,18.93
2018-05-10T12:38:05.459Z,17.90
2018-05-10T12:40:32.931Z,20.40
2018-05-10T12:43:00.405Z,21.37
2018-05-10T12:45:28.634Z,21.40
2018-05-10T12:47:56.090Z,22.00
2018-05-10T12:50:23.963Z,22.30
2018-05-10T12:52:51.430Z,23.17
2018-05-10T12:55:19.113Z,25.70
2018-05-10T12:57:46.566Z,26.13
2018-05-10T13:00:14.018Z,25.27
2018-05-10T13:02:41.462Z,27.53
2018-05-10T13:05:08.920Z,27.33
2018-05-10T13:07:36.390Z,26.50
2018-05-10T13:10:03.845Z,25.27
2018-05-10T13:12:31.299Z,23.00
2018-05-10T13:14:58.756Z,21.47
2018-05-10T13:17:26.213Z,21.10
2018-05-10T13:19:53.666Z,22.73
2018-05-10T13:22:21.132Z,19.73
2018-05-10T13:24:48.588Z,22.10
2018-05-10T13:27:16.127Z,18.70
2018-05-10T13:29:44.147Z,17.70
2018-05-10T13:32:12.660Z,13.90
2018-05-10T13:34:40.120Z,13.23
2018-05-10T13:37:07.576Z,11.03
2018-05-10T13:39:35.028Z,8.53
2018-05-10T13:42:02.486Z,8.47
2018-05-10T13:44:29.930Z,6.73
2018-05-10T13:46:57.412Z,6.87
2018-05-10T13:49:24.850Z,5.73
2018-05-10T13:51:52.842Z,5.87
2018-05-10T13:54:20.282Z,7.30
2018-05-10T13:56:47.736Z,6.50
2018-05-10T13:59:15.200Z,5.73
2018-05-10T14:01:42.648Z,5.57
2018-05-10T14:04:18.551Z,5.17
2018-05-10T14:06:45.994Z,4.90
2018-05-10T14:09:13.446Z,4.83
2018-05-10T14:11:40.889Z,4.77
2018-05-10T14:14:08.349Z,5.70
2018-05-10T14:16:35.882Z,4.70
2018-05-10T14:19:03.251Z,5.50
2018-05-10T14:21:30.695Z,4.90
2018-05-10T14:23:58.167Z,5.33
2018-05-10T14:26:26.068Z,5.40
2018-05-10T14:28:53.518Z,5.47
2018-05-10T14:31:20.982Z,4.70
2018-05-10T14:33:48.426Z,5.20
2018-05-10T14:36:16.185Z,6.20
2018-05-10T14:38:43.621Z,5.53
2018-05-10T14:41:11.076Z,5.70
2018-05-10T14:43:38.539Z,5.27
2018-05-10T14:46:05.998Z,5.80
2018-05-10T14:48:33.447Z,6.10
2018-05-10T14:51:01.006Z,6.33
2018-05-10T14:53:29.047Z,5.80
2018-05-10T14:55:57.279Z,5.97
2018-05-10T14:58:24.734Z,6.37
2018-05-10T15:00:52.174Z,5.27
2018-05-10T15:03:19.627Z,6.10
2018-05-10T15:05:47.083Z,5.90
2018-05-10T15:08:14.551Z,6.00
2018-05-10T15:10:41.996Z,6.33
2018-05-10T15:13:09.455Z,7.70
2018-05-10T15:15:36.932Z,6.03
2018-05-10T15:18:04.366Z,6.10
2018-05-10T15:20:31.822Z,6.33
2018-05-10T15:22:59.266Z,6.80
2018-05-10T15:25:26.726Z,6.93
2018-05-10T15:27:54.176Z,6.63
2018-05-10T15:30:21.634Z,6.03
2018-05-10T15:32:49.090Z,7.77
2018-05-10T15:35:16.538Z,6.60
2018-05-10T15:37:44.756Z,6.03
2018-05-10T15:40:12.206Z,7.27
2018-05-10T15:42:39.676Z,7.13
2018-05-10T15:45:07.122Z,7.63
2018-05-10T15:47:34.595Z,8.10
2018-05-10T15:50:02.046Z,8.10
2018-05-10T15:52:30.977Z,8.00
2018-05-10T15:54:58.411Z,9.23
2018-05-10T15:57:25.852Z,9.87
2018-05-10T15:59:53.310Z,8.80
2018-05-10T16:02:20.867Z,10.33
2018-05-10T16:04:48.320Z,11.60
2018-05-10T16:07:15.777Z,11.30
2018-05-10T16:09:43.230Z,10.60
2018-05-10T16:12:10.899Z,12.20
2018-05-10T16:14:38.670Z,12.17
2018-05-10T16:17:06.142Z,11.83
2018-05-10T16:19:33.595Z,11.80
2018-05-10T16:22:01.054Z,13.37
2018-05-10T16:24:28.498Z,16.20
2018-05-10T16:26:55.957Z,15.93
2018-05-10T16:29:23.418Z,16.33
2018-05-10T16:31:50.869Z,17.53
2018-05-10T16:34:18.350Z,18.23
2018-05-10T16:36:45.814Z,19.07
2018-05-10T16:39:14.040Z,17.20
2018-05-10T16:41:41.491Z,17.70
2018-05-10T16:44:08.956Z,18.43
2018-05-10T16:46:36.410Z,20.03
2018-05-10T16:49:03.858Z,19.80
2018-05-10T16:51:31.314Z,18.67
2018-05-10T16:53:58.813Z,19.70
2018-05-10T16:56:26.270Z,21.50
2018-05-10T16:58:53.713Z,19.60
2018-05-10T17:01:21.167Z,19.70
2018-05-10T17:03:48.671Z,20.90
2018-05-10T17:06:17.254Z,20.23
2018-05-10T17:08:45.467Z,20.63
2018-05-10T17:11:12.938Z,20.93
2018-05-10T17:13:40.403Z,21.20
2018-05-10T17:16:07.842Z,20.50
2018-05-10T17:18:35.339Z,20.60
2018-05-10T17:21:02.768Z,20.27
2018-05-10T17:23:30.242Z,19.90
2018-05-10T17:25:57.690Z,20.90
2018-05-10T17:28:25.153Z,21.03
2018-05-10T17:30:52.655Z,21.70
2018-05-10T17:33:20.084Z,21.33
2018-05-10T17:35:47.541Z,23.63
2018-05-10T17:38:15.006Z,21.23
2018-05-10T17:40:43.232Z,21.47
2018-05-10T17:43:10.706Z,22.87
2018-05-10T17:45:38.157Z,21.03
2018-05-10T17:48:05.608Z,20.50
2018-05-10T17:50:33.058Z,20.63
2018-05-10T17:53:00.519Z,21.93
2018-05-10T17:55:27.984Z,23.90
2018-05-10T17:57:55.448Z,23.27
2018-05-10T18:00:22.918Z,22.07
2018-05-10T18:02:50.643Z,20.40
2018-05-10T18:05:18.090Z,22.53
2018-05-10T18:07:45.547Z,21.77
2018-05-10T18:10:13.019Z,21.87
2018-05-10T18:12:40.470Z,22.30
2018-05-10T18:15:07.927Z,22.47
2018-05-10T18:17:35.383Z,22.10
2018-05-10T18:20:02.839Z,21.33
2018-05-10T18:22:30.322Z,21.00
2018-05-10T18:24:58.293Z,22.00
2018-05-10T18:27:25.746Z,22.23
2018-05-10T18:29:53.883Z,21.40
2018-05-10T18:32:21.913Z,19.90
2018-05-10T18:34:49.374Z,20.80
2018-05-10T18:37:16.831Z,20.07
2018-05-10T18:39:44.994Z,19.43
2018-05-10T18:42:12.458Z,20.47
2018-05-10T18:44:39.920Z,21.10
2018-05-10T18:47:07.764Z,20.83
2018-05-10T18:49:35.214Z,21.47
2018-05-10T18:52:03.546Z,20.37
2018-05-10T18:54:31.047Z,20.03
2018-05-10T18:56:58.446Z,25.27
2018-05-10T18:59:26.679Z,19.77
2018-05-10T19:01:54.224Z,20.20
2018-05-10T19:04:21.587Z,21.70
2018-05-10T19:06:49.039Z,18.60
2018-05-10T19:09:16.500Z,21.23
2018-05-10T19:11:43.961Z,22.43
2018-05-10T19:14:11.592Z,21.83
2018-05-10T19:16:39.052Z,22.63
2018-05-10T19:19:06.591Z,22.90
2018-05-10T19:21:34.824Z,25.20
2018-05-10T19:24:03.049Z,21.77
2018-05-10T19:26:31.419Z,20.70
2018-05-10T19:28:58.838Z,22.70
2018-05-10T19:31:26.294Z,25.23
2018-05-10T19:33:53.759Z,25.10
2018-05-10T19:36:21.861Z,21.20
2018-05-10T19:38:50.082Z,20.90
2018-05-10T19:41:17.538Z,19.50
2018-05-10T19:43:44.992Z,34.30
2018-05-10T19:46:12.689Z,22.90
2018-05-10T19:48:40.147Z,20.57
2018-05-10T19:51:07.590Z,20.10
2018-05-10T19:53:35.047Z,18.80
2018-05-10T19:56:02.494Z,20.70
2018-05-10T19:58:29.967Z,20.50
2018-05-10T20:00:58.240Z,20.57
2018-05-10T20:03:25.715Z,21.10
2018-05-10T20:05:53.162Z,25.67
2018-05-10T20:08:20.615Z,18.77
2018-05-10T20:10:48.080Z,23.87
2018-05-10T20:13:15.530Z,21.43
2018-05-10T20:15:43.006Z,21.63
2018-05-10T20:18:10.450Z,30.60
2018-05-10T20:20:38.774Z,24.70
2018-05-10T20:23:06.878Z,20.60
2018-05-10T20:25:34.331Z,20.57
2018-05-10T20:28:01.804Z,21.53
2018-05-10T20:30:29.286Z,20.50
2018-05-10T20:32:57.507Z,20.00
2018-05-10T20:35:24.962Z,20.90
2018-05-10T20:37:52.426Z,21.57
2018-05-10T20:40:19.885Z,20.53
2018-05-10T20:42:47.441Z,20.40
2018-05-10T20:45:14.893Z,22.50
2018-05-10T20:47:42.414Z,21.80
2018-05-10T20:50:10.641Z,21.07
2018-05-10T20:52:38.095Z,20.40
2018-05-10T20:55:05.592Z,20.60
2018-05-10T20:57:33.027Z,21.53
2018-05-10T21:00:00.486Z,19.90
2018-05-10T21:02:27.933Z,19.60
2018-05-10T21:04:55.943Z,22.00
2018-05-10T21:07:24.180Z,22.20
2018-05-10T21:09:51.687Z,20.53
2018-05-10T21:12:31.759Z,44.47
2018-05-10T21:14:59.235Z,22.53
2018-05-10T21:17:26.691Z,19.77
2018-05-10T21:19:54.134Z,20.00
2018-05-10T21:22:21.595Z,20.83
2018-05-10T21:24:49.503Z,21.03
2018-05-10T21:27:16.982Z,22.83
2018-05-10T21:29:45.207Z,23.40
2018-05-10T21:32:12.660Z,22.67
2018-05-10T21:34:40.132Z,25.17
2018-05-10T21:37:07.578Z,21.77
2018-05-10T21:39:35.036Z,21.80
2018-05-10T21:42:02.483Z,22.30
2018-05-10T21:44:30.698Z,22.63
2018-05-10T21:46:58.159Z,21.33
2018-05-10T21:49:38.173Z,22.20
2018-05-10T21:52:05.635Z,20.27
2018-05-10T21:54:33.095Z,23.80
2018-05-10T21:57:00.546Z,21.70
2018-05-10T21:59:28.015Z,20.53
2018-05-10T22:01:55.463Z,20.80
2018-05-10T22:04:23.530Z,20.90
2018-05-10T22:06:50.982Z,20.73
2018-05-10T22:09:18.450Z,21.57
2018-05-10T22:11:46.418Z,19.33
2018-05-10T22:14:13.874Z,19.53
2018-05-10T22:16:41.338Z,18.90
2018-05-10T22:19:09.722Z,20.33
2018-05-10T22:21:37.184Z,20.27
2018-05-10T22:24:04.643Z,19.43
2018-05-10T22:26:32.106Z,22.80
2018-05-10T22:28:59.573Z,23.03
2018-05-10T22:31:27.787Z,18.60
2018-05-10T22:33:55.251Z,19.30
2018-05-10T22:36:22.706Z,18.67
2018-05-10T22:38:50.159Z,19.33
2018-05-10T22:41:17.618Z,18.87
2018-05-10T22:43:45.078Z,19.07
2018-05-10T22:46:13.483Z,16.97
2018-05-10T22:48:40.930Z,18.03
2018-05-10T22:51:08.408Z,18.53
2018-05-10T22:53:35.868Z,16.70
2018-05-10T22:56:03.877Z,17.10
2018-05-10T22:58:31.336Z,18.20
2018-05-10T23:00:58.805Z,18.43
2018-05-10T23:03:26.255Z,16.90
2018-05-10T23:05:53.709Z,18.00
2018-05-10T23:08:21.167Z,17.53
2018-05-10T23:10:48.611Z,17.20
2018-05-10T23:13:16.083Z,17.77
2018-05-10T23:15:43.550Z,16.70
2018-05-10T23:18:11.012Z,16.40
2018-05-10T23:20:38.471Z,16.90
2018-05-10T23:23:05.923Z,16.10
2018-05-10T23:25:33.379Z,17.57
2018-05-10T23:28:00.838Z,17.60
2018-05-10T23:30:28.297Z,16.13
2018-05-10T23:32:56.182Z,15.93
2018-05-10T23:35:24.474Z,16.17
2018-05-10T23:37:51.938Z,16.70
2018-05-10T23:40:19.395Z,16.70
2018-05-10T23:42:46.843Z,17.03
2018-05-10T23:45:14.303Z,16.20
2018-05-10T23:47:41.750Z,15.97
2018-05-10T23:50:09.206Z,15.70
2018-05-10T23:52:36.657Z,15.60
2018-05-10T23:55:04.117Z,14.70
2018-05-10T23:57:31.561Z,16.63
2018-05-10T23:59:59.028Z,16.40
